Time;durP1;ratioP1;P1;durP2;ratioP2;P2;SDS_P1;SDS_P2;PMS_P1;PMS_P2;Temp;Humidity;BMP_temperature;BMP_pressure;BME280_temperature;BME280_humidity;BME280_pressure;Samples;Min_cycle;Max_cycle;Signal;HPM_P1;HPM_P2
2022/08/02 00:01:38;;;;;;;0.40;0.40;;;11.80;99.90;;;;;;5056732;28;20483;-72
2022/08/02 00:04:04;;;;;;;0.40;0.40;;;11.80;99.90;;;;;;5048728;28;20044;-72
2022/08/02 00:06:29;;;;;;;0.50;0.50;;;11.70;99.90;;;;;;5049610;28;20406;-72
2022/08/02 00:08:55;;;;;;;0.50;0.50;;;11.70;99.90;;;;;;5058430;28;20049;-72
2022/08/02 00:11:21;;;;;;;1.67;1.58;;;11.70;99.90;;;;;;5058107;28;20053;-72
2022/08/02 00:13:47;;;;;;;0.30;0.30;;;11.70;99.90;;;;;;5058215;28;20502;-72
2022/08/02 00:16:13;;;;;;;0.25;0.25;;;11.70;99.90;;;;;;5040296;28;20041;-72
2022/08/02 00:18:38;;;;;;;0.30;0.30;;;11.70;99.90;;;;;;5052347;28;20130;-72
2022/08/02 00:21:04;;;;;;;0.40;0.40;;;11.70;99.90;;;;;;5055125;28;20076;-72
2022/08/02 00:23:30;;;;;;;0.50;0.50;;;11.80;99.90;;;;;;5051387;28;20063;-72
2022/08/02 00:25:57;;;;;;;0.40;0.40;;;11.70;99.90;;;;;;5037127;28;20138;-72
2022/08/02 00:28:23;;;;;;;0.40;0.40;;;11.80;99.90;;;;;;5056278;28;20056;-72
2022/08/02 00:30:49;;;;;;;0.50;0.50;;;12.00;99.90;;;;;;5055923;28;20429;-72
2022/08/02 00:33:15;;;;;;;0.40;0.40;;;11.80;99.90;;;;;;5049599;28;20041;-72
2022/08/02 00:35:41;;;;;;;0.45;0.45;;;11.90;99.90;;;;;;5048849;28;20044;-72
2022/08/02 00:38:06;;;;;;;0.40;0.40;;;11.80;99.90;;;;;;5050523;28;20390;-73
2022/08/02 00:40:32;;;;;;;0.22;0.22;;;12.10;99.90;;;;;;5049009;28;20103;-72
2022/08/02 00:43:07;;;;;;;0.40;0.40;;;11.80;99.90;;;;;;5060502;28;20036;-72
2022/08/02 00:45:35;;;;;;;0.40;0.40;;;11.80;99.90;;;;;;5047358;28;20498;-72
2022/08/02 00:48:01;;;;;;;0.43;0.43;;;11.80;99.90;;;;;;5040568;28;20041;-72
2022/08/02 00:50:27;;;;;;;0.38;0.38;;;11.70;99.90;;;;;;5049626;28;20102;-73
2022/08/02 00:52:54;;;;;;;0.40;0.40;;;12.00;99.90;;;;;;5034514;28;20494;-72
2022/08/02 00:55:20;;;;;;;0.30;0.30;;;11.70;99.90;;;;;;5068528;28;20486;-72
2022/08/02 00:57:47;;;;;;;0.43;0.43;;;11.70;99.90;;;;;;5064983;28;20036;-72
2022/08/02 01:00:13;;;;;;;0.47;0.47;;;12.30;99.90;;;;;;5048399;28;20088;-72
2022/08/02 01:02:39;;;;;;;0.30;0.30;;;11.70;99.90;;;;;;5049330;28;20044;-72
2022/08/02 01:05:05;;;;;;;0.50;0.50;;;11.70;99.90;;;;;;5035937;28;20042;-72
2022/08/02 01:07:31;;;;;;;0.35;0.35;;;11.60;99.90;;;;;;5044961;28;20506;-72
2022/08/02 01:09:57;;;;;;;0.40;0.40;;;11.60;99.90;;;;;;5048384;28;20049;-72
2022/08/02 01:12:22;;;;;;;0.45;0.45;;;11.60;99.90;;;;;;5065555;28;20044;-72
2022/08/02 01:14:54;;;;;;;0.30;0.30;;;11.60;99.90;;;;;;5049753;28;20053;-72
2022/08/02 01:18:02;;;;;;;0.40;0.40;;;11.60;99.90;;;;;;5048403;28;20074;-72
2022/08/02 01:20:39;;;;;;;0.40;0.40;;;11.60;99.90;;;;;;5038567;28;20047;-72
2022/08/02 01:23:26;;;;;;;0.40;0.40;;;11.80;99.90;;;;;;5043470;28;20045;-72
2022/08/02 01:26:01;;;;;;;0.43;0.43;;;11.80;99.90;;;;;;5050138;28;20068;-72
2022/08/02 01:28:51;;;;;;;0.40;0.40;;;11.70;99.90;;;;;;5050641;28;20071;-72
2022/08/02 01:31:29;;;;;;;0.50;0.50;;;11.70;99.90;;;;;;5045415;28;20057;-72
2022/08/02 01:34:32;;;;;;;0.50;0.50;;;11.60;99.90;;;;;;5045413;28;20071;-72
2022/08/02 01:37:21;;;;;;;0.47;0.47;;;11.80;99.90;;;;;;5045743;28;20095;-72
2022/08/02 01:39:53;;;;;;;0.70;0.70;;;11.70;99.90;;;;;;5023321;28;20127;-72
2022/08/02 01:42:21;;;;;;;0.50;0.50;;;11.50;99.90;;;;;;5052852;28;20048;-72
2022/08/02 01:44:51;;;;;;;0.40;0.40;;;11.60;99.90;;;;;;5055931;28;20051;-72
2022/08/02 01:47:21;;;;;;;0.40;0.40;;;11.80;99.90;;;;;;5055178;28;20052;-72
2022/08/02 01:49:50;;;;;;;0.40;0.40;;;11.60;99.90;;;;;;5054882;28;20398;-72
2022/08/02 01:52:20;;;;;;;0.40;0.40;;;11.70;99.90;;;;;;5051491;28;20045;-72
2022/08/02 01:54:59;;;;;;;0.60;0.60;;;11.50;99.90;;;;;;5059189;28;20041;-72
2022/08/02 01:57:28;;;;;;;0.40;0.40;;;11.50;99.90;;;;;;5045020;28;20475;-72
2022/08/02 01:59:56;;;;;;;0.40;0.40;;;11.60;99.90;;;;;;5068722;28;20055;-72
2022/08/02 02:02:22;;;;;;;0.38;0.38;;;11.50;99.90;;;;;;5056345;28;20044;-72
2022/08/02 02:04:50;;;;;;;0.50;0.50;;;11.70;99.90;;;;;;5052227;28;20553;-72
2022/08/02 02:07:19;;;;;;;0.50;0.50;;;11.50;99.90;;;;;;5051854;28;20091;-72
2022/08/02 02:09:47;;;;;;;0.60;0.60;;;11.50;99.90;;;;;;5052792;28;20372;-72
2022/08/02 02:12:14;;;;;;;0.50;0.50;;;11.60;99.90;;;;;;5067715;28;20110;-72
2022/08/02 02:14:42;;;;;;;0.98;0.98;;;11.60;99.90;;;;;;5052313;28;20041;-72
2022/08/02 02:17:10;;;;;;;0.40;0.40;;;11.60;99.90;;;;;;5051583;28;20040;-71
2022/08/02 02:19:38;;;;;;;0.45;0.45;;;11.80;99.90;;;;;;5051030;28;20138;-71
2022/08/02 02:22:04;;;;;;;0.40;0.40;;;11.70;99.90;;;;;;5055856;28;20621;-71
2022/08/02 02:24:30;;;;;;;0.32;0.32;;;11.50;99.90;;;;;;5034084;28;20048;-71
2022/08/02 02:26:57;;;;;;;;;;;11.40;99.90;;;;;;5054759;28;20060;-71
2022/08/02 02:29:26;;;;;;;0.50;0.50;;;11.80;99.90;;;;;;5053489;28;19929;-71
2022/08/02 02:31:53;;;;;;;0.40;0.40;;;11.60;99.90;;;;;;5038586;28;20430;-71
2022/08/02 02:34:33;;;;;;;0.50;0.50;;;11.50;99.90;;;;;;5041821;28;20091;-72
2022/08/02 02:37:03;;;;;;;0.43;0.43;;;11.40;99.90;;;;;;5031249;28;20466;-72
2022/08/02 02:39:32;;;;;;;0.38;0.38;;;11.40;99.90;;;;;;5052473;28;20072;-72
2022/08/02 02:42:02;;;;;;;0.40;0.40;;;11.70;99.90;;;;;;5067254;28;20136;-72
2022/08/02 02:44:29;;;;;;;0.38;0.38;;;11.70;99.90;;;;;;5052466;28;20142;-72
2022/08/02 02:46:56;;;;;;;0.40;0.40;;;11.60;99.90;;;;;;5077718;28;20558;-71
2022/08/02 02:49:22;;;;;;;0.40;0.40;;;11.70;99.90;;;;;;5048647;28;20162;-71
2022/08/02 02:51:50;;;;;;;0.50;0.50;;;11.60;99.90;;;;;;5051057;28;20049;-71
2022/08/02 02:54:17;;;;;;;0.40;0.40;;;11.60;99.90;;;;;;5049970;28;20486;-71
2022/08/02 02:56:45;;;;;;;0.40;0.40;;;12.10;99.90;;;;;;5034760;28;20364;-71
2022/08/02 02:59:14;;;;;;;0.30;0.30;;;11.80;99.90;;;;;;5051153;28;20445;-71
2022/08/02 03:01:40;;;;;;;3.80;0.60;;;11.60;99.90;;;;;;5049382;28;20128;-71
2022/08/02 03:04:06;;;;;;;;;;;11.60;99.90;;;;;;5071931;28;20041;-71
2022/08/02 03:06:34;;;;;;;0.40;0.40;;;11.50;99.90;;;;;;5058250;28;20011;-71
2022/08/02 03:09:00;;;;;;;0.30;0.30;;;11.50;99.90;;;;;;5056649;28;20055;-71
2022/08/02 03:11:29;;;;;;;0.43;0.43;;;11.60;99.90;;;;;;5067763;28;20049;-71
2022/08/02 03:13:59;;;;;;;0.40;0.40;;;11.80;99.90;;;;;;5051204;28;20629;-71
2022/08/02 03:16:27;;;;;;;0.40;0.40;;;11.60;99.90;;;;;;5054612;28;20502;-71
2022/08/02 03:18:54;;;;;;;0.40;0.40;;;11.90;99.90;;;;;;5058631;28;20056;-71
2022/08/02 03:21:20;;;;;;;0.40;0.40;;;11.80;99.90;;;;;;5038922;28;20053;-71
2022/08/02 03:23:46;;;;;;;0.40;0.40;;;11.60;99.90;;;;;;5054093;28;20473;-71
2022/08/02 03:26:12;;;;;;;0.40;0.40;;;11.70;99.90;;;;;;5054389;28;20048;-72
2022/08/02 03:28:38;;;;;;;;;;;11.50;99.90;;;;;;5059764;28;20095;-72
2022/08/02 03:31:04;;;;;;;0.43;0.43;;;11.80;99.90;;;;;;5054711;28;20337;-72
2022/08/02 03:33:30;;;;;;;0.65;0.52;;;11.50;99.90;;;;;;5044342;28;20518;-71
2022/08/02 03:35:58;;;;;;;1.25;0.47;;;11.70;99.90;;;;;;5042264;28;20364;-71
2022/08/02 03:38:25;;;;;;;0.40;0.40;;;11.70;99.90;;;;;;5046360;28;20518;-71
2022/08/02 03:40:52;;;;;;;0.50;0.50;;;11.50;99.90;;;;;;5067461;28;20049;-71
2022/08/02 03:43:19;;;;;;;0.45;0.45;;;11.80;99.90;;;;;;5058722;28;20071;-71
2022/08/02 03:45:49;;;;;;;0.30;0.30;;;11.60;99.90;;;;;;5065922;28;20045;-71
2022/08/02 03:48:15;;;;;;;0.40;0.40;;;11.50;99.90;;;;;;5053264;28;20040;-71
2022/08/02 03:50:42;;;;;;;0.45;0.45;;;11.60;99.90;;;;;;5050620;28;20041;-71
2022/08/02 03:53:08;;;;;;;0.47;0.47;;;11.60;99.90;;;;;;5059747;28;20438;-71
2022/08/02 03:55:38;;;;;;;0.40;0.40;;;11.60;99.90;;;;;;5048653;28;20036;-71
2022/08/02 03:58:04;;;;;;;0.35;0.35;;;11.60;99.90;;;;;;5063903;28;20080;-72
2022/08/02 04:00:30;;;;;;;;;;;11.60;99.90;;;;;;5057971;28;20117;-71
2022/08/02 04:02:56;;;;;;;0.50;0.50;;;12.00;99.90;;;;;;5055324;28;20078;-72
2022/08/02 04:05:22;;;;;;;0.30;0.30;;;11.80;99.90;;;;;;5049629;28;20045;-72
2022/08/02 04:07:49;;;;;;;;;;;11.70;99.90;;;;;;5050582;28;20450;-72
2022/08/02 04:10:15;;;;;;;0.30;0.30;;;11.80;99.90;;;;;;5049157;28;19920;-71
2022/08/02 04:12:41;;;;;;;0.32;0.32;;;12.00;99.90;;;;;;5053782;28;20036;-71
2022/08/02 04:15:09;;;;;;;0.32;0.32;;;11.80;99.90;;;;;;5048076;28;20057;-71
2022/08/02 04:17:46;;;;;;;0.40;0.40;;;11.80;99.90;;;;;;5054276;28;20055;-72
2022/08/02 04:20:21;;;;;;;0.30;0.30;;;12.00;99.90;;;;;;5032961;28;20076;-72
2022/08/02 04:22:53;;;;;;;0.45;0.45;;;11.90;99.90;;;;;;5048319;28;20395;-72
2022/08/02 04:25:20;;;;;;;0.40;0.40;;;11.90;99.90;;;;;;5048440;28;20376;-72
2022/08/02 04:27:46;;;;;;;0.30;0.30;;;11.90;99.90;;;;;;5031994;28;20068;-72
2022/08/02 04:30:15;;;;;;;0.55;0.55;;;12.00;99.90;;;;;;5048871;28;20567;-72
2022/08/02 04:32:41;;;;;;;0.40;0.40;;;12.00;99.90;;;;;;5031787;28;20037;-72
2022/08/02 04:35:07;;;;;;;0.50;0.50;;;11.90;99.90;;;;;;5048016;28;20046;-72
2022/08/02 04:37:33;;;;;;;;;;;12.20;99.90;;;;;;5045327;28;20059;-73
2022/08/02 04:39:59;;;;;;;1.65;1.05;;;12.10;99.90;;;;;;5028823;28;19921;-73
2022/08/02 04:42:25;;;;;;;0.85;0.77;;;12.40;99.90;;;;;;5046720;28;20045;-73
2022/08/02 04:44:52;;;;;;;;;;;12.30;99.90;;;;;;5033719;28;20044;-73
2022/08/02 04:47:19;;;;;;;0.50;0.50;;;12.30;99.90;;;;;;5039655;28;19928;-72
2022/08/02 04:49:45;;;;;;;0.30;0.30;;;12.30;99.90;;;;;;5052065;28;20119;-72
2022/08/02 04:52:12;;;;;;;0.50;0.50;;;12.60;99.90;;;;;;5049751;28;20171;-72
2022/08/02 04:54:37;;;;;;;0.45;0.45;;;12.50;99.90;;;;;;5048565;28;20041;-73
2022/08/02 04:57:53;;;;;;;0.30;0.30;;;12.50;99.90;;;;;;5055479;28;20044;-73
2022/08/02 04:59:49;;;;;;;0.40;0.40;;;12.60;99.90;;;;;;5054832;28;20745;-73
2022/08/02 05:02:15;;;;;;;0.43;0.43;;;12.70;99.90;;;;;;5052283;28;20171;-73
2022/08/02 05:04:41;;;;;;;0.40;0.40;;;12.80;99.90;;;;;;5049620;28;20060;-72
2022/08/02 05:07:06;;;;;;;0.45;0.45;;;12.90;99.90;;;;;;5051792;28;20398;-73
2022/08/02 05:09:32;;;;;;;0.30;0.30;;;12.90;99.90;;;;;;5063153;28;20052;-73
2022/08/02 05:11:57;;;;;;;0.40;0.40;;;13.20;99.90;;;;;;5053783;28;20044;-72
2022/08/02 05:14:23;;;;;;;0.30;0.30;;;13.20;99.90;;;;;;5058647;28;20048;-73
2022/08/02 05:16:49;;;;;;;0.45;0.45;;;13.40;99.90;;;;;;5049478;28;20119;-73
2022/08/02 05:19:14;;;;;;;0.47;0.47;;;13.30;99.90;;;;;;5040425;28;20067;-73
2022/08/02 05:21:40;;;;;;;0.98;0.98;;;13.50;99.90;;;;;;5049398;28;20210;-72
2022/08/02 05:24:06;;;;;;;0.32;0.32;;;13.70;99.90;;;;;;5052898;28;20059;-72
2022/08/02 05:26:32;;;;;;;0.40;0.40;;;13.80;99.90;;;;;;5053582;28;20041;-72
2022/08/02 05:28:58;;;;;;;0.28;0.28;;;13.90;99.90;;;;;;5057388;28;20067;-72
2022/08/02 05:31:23;;;;;;;;;;;14.20;99.90;;;;;;5049175;28;20041;-73
2022/08/02 05:33:49;;;;;;;0.35;0.35;;;14.20;99.90;;;;;;5036897;28;19920;-73
2022/08/02 05:36:15;;;;;;;0.50;0.50;;;14.40;99.90;;;;;;5051844;28;20041;-73
2022/08/02 05:38:40;;;;;;;;;;;14.50;99.90;;;;;;5052840;28;20044;-73
2022/08/02 05:41:06;;;;;;;0.30;0.30;;;14.60;99.90;;;;;;5051897;28;19928;-73
2022/08/02 05:43:32;;;;;;;0.38;0.38;;;14.80;99.90;;;;;;5053260;28;20120;-73
2022/08/02 05:45:58;;;;;;;;;;;14.90;99.90;;;;;;5051428;28;20379;-73
2022/08/02 05:48:24;;;;;;;0.40;0.40;;;14.90;99.90;;;;;;5051417;28;20375;-72
2022/08/02 05:50:54;;;;;;;0.45;0.45;;;15.00;99.90;;;;;;5038164;28;20034;-73
2022/08/02 05:53:40;;;;;;;0.30;0.30;;;14.80;99.90;;;;;;5045437;28;20449;-73
2022/08/02 05:56:22;;;;;;;0.20;0.20;;;15.10;99.90;;;;;;5045337;28;20045;-73
2022/08/02 05:59:02;;;;;;;0.50;0.50;;;14.90;99.90;;;;;;5046323;28;20045;-72
2022/08/02 06:01:36;;;;;;;0.30;0.30;;;15.00;99.90;;;;;;5048593;28;20136;-74
2022/08/02 06:04:07;;;;;;;0.40;0.40;;;15.20;99.90;;;;;;5049171;28;20049;-73
2022/08/02 06:06:33;;;;;;;0.25;0.25;;;15.10;99.90;;;;;;5047041;28;20048;-74
2022/08/02 06:09:02;;;;;;;0.70;0.52;;;15.40;99.90;;;;;;5044955;28;20075;-73
2022/08/02 06:11:36;;;;;;;1.05;0.95;;;15.30;99.90;;;;;;5049273;28;20041;-73
2022/08/02 06:14:06;;;;;;;0.30;0.30;;;15.50;99.90;;;;;;5039076;28;20724;-74
2022/08/02 06:16:33;;;;;;;0.43;0.43;;;15.40;99.90;;;;;;5048300;28;20049;-74
2022/08/02 06:18:59;;;;;;;0.65;0.65;;;15.60;99.90;;;;;;5064325;28;20088;-73
2022/08/02 06:21:26;;;;;;;7.05;1.80;;;15.70;99.90;;;;;;5031221;28;20122;-74
2022/08/02 06:23:52;;;;;;;0.63;0.63;;;15.90;99.90;;;;;;5047589;28;20056;-73
2022/08/02 06:26:19;;;;;;;0.45;0.45;;;16.10;99.90;;;;;;5063571;28;20127;-73
2022/08/02 06:28:46;;;;;;;0.20;0.20;;;16.30;99.90;;;;;;5049385;28;20049;-73
2022/08/02 06:31:14;;;;;;;0.40;0.40;;;16.40;99.90;;;;;;5047167;28;20134;-73
2022/08/02 06:33:39;;;;;;;0.20;0.20;;;16.50;99.90;;;;;;5051307;28;20029;-73
2022/08/02 06:36:23;;;;;;;0.22;0.22;;;16.50;99.90;;;;;;5044111;28;20395;-73
2022/08/02 06:39:22;;;;;;;0.40;0.40;;;16.70;99.90;;;;;;5046113;28;20056;-72
2022/08/02 06:41:50;;;;;;;1.08;1.08;;;16.80;99.90;;;;;;5024200;28;20493;-73
2022/08/02 06:44:16;;;;;;;0.28;0.28;;;16.80;99.90;;;;;;5031483;28;20062;-72
2022/08/02 06:46:42;;;;;;;;;;;17.10;99.90;;;;;;5043281;28;20394;-72
2022/08/02 06:49:08;;;;;;;0.60;0.60;;;17.10;99.90;;;;;;5041509;28;20400;-73
2022/08/02 06:51:33;;;;;;;;;;;17.30;99.90;;;;;;5025191;28;20044;-73
2022/08/02 06:53:59;;;;;;;0.55;0.55;;;17.20;99.90;;;;;;5038602;28;19927;-73
2022/08/02 06:56:25;;;;;;;;;;;17.50;99.90;;;;;;5037026;28;20517;-73
2022/08/02 06:58:50;;;;;;;0.60;0.60;;;17.60;99.90;;;;;;5045075;28;20291;-72
2022/08/02 07:01:17;;;;;;;;;;;17.70;99.90;;;;;;5046957;28;20045;-73
2022/08/02 07:03:43;;;;;;;0.63;0.63;;;17.60;99.90;;;;;;5028886;28;19921;-73
2022/08/02 07:06:09;;;;;;;;;;;17.80;99.90;;;;;;5052024;28;20048;-73
2022/08/02 07:08:37;;;;;;;0.85;0.70;;;17.90;99.90;;;;;;5048309;28;19925;-73
2022/08/02 07:11:07;;;;;;;0.30;0.30;;;18.30;99.90;;;;;;5051649;28;20063;-74
2022/08/02 07:13:33;;;;;;;0.30;0.30;;;18.20;99.90;;;;;;5031620;28;20032;-74
2022/08/02 07:16:00;;;;;;;0.50;0.50;;;18.60;99.90;;;;;;5050497;28;20128;-74
2022/08/02 07:18:26;;;;;;;0.20;0.20;;;18.70;99.90;;;;;;5048509;28;20049;-73
2022/08/02 07:20:52;;;;;;;;;;;18.70;99.90;;;;;;5049361;28;20045;-73
2022/08/02 07:23:18;;;;;;;0.30;0.30;;;18.70;99.90;;;;;;5050268;28;19928;-74
2022/08/02 07:25:44;;;;;;;;;;;18.70;99.90;;;;;;5050250;28;20068;-73
2022/08/02 07:28:11;;;;;;;2.00;0.68;;;18.70;99.90;;;;;;5033297;28;19931;-73
2022/08/02 07:30:37;;;;;;;0.75;0.75;;;18.80;99.90;;;;;;5054402;28;20091;-74
2022/08/02 07:33:03;;;;;;;0.65;0.65;;;19.00;99.90;;;;;;5033422;28;20417;-73
2022/08/02 07:35:29;;;;;;;0.20;0.20;;;19.00;99.90;;;;;;5049153;28;20465;-75
2022/08/02 07:37:55;;;;;;;;;;;19.10;99.90;;;;;;5032448;28;20124;-73
2022/08/02 07:40:21;;;;;;;0.50;0.40;;;19.30;99.90;;;;;;5059034;28;19924;-73
2022/08/02 07:42:52;;;;;;;0.20;0.20;;;19.40;99.90;;;;;;5052379;28;20049;-74
2022/08/02 07:45:19;;;;;;;0.30;0.30;;;19.40;99.90;;;;;;5045352;28;20041;-73
2022/08/02 07:47:45;;;;;;;0.32;0.32;;;19.60;99.90;;;;;;5061360;28;20482;-73
2022/08/02 07:50:13;;;;;;;0.25;0.25;;;19.80;99.90;;;;;;5055993;28;20040;-72
2022/08/02 07:52:40;;;;;;;0.20;0.20;;;19.80;99.90;;;;;;5049188;28;20059;-73
2022/08/02 07:55:07;;;;;;;0.32;0.32;;;20.00;99.90;;;;;;5049340;28;20166;-73
2022/08/02 07:57:33;;;;;;;0.20;0.20;;;20.10;99.90;;;;;;5042360;28;20081;-73
2022/08/02 07:59:59;;;;;;;0.32;0.32;;;20.10;99.90;;;;;;5054132;28;20052;-73
2022/08/02 08:02:24;;;;;;;0.20;0.20;;;20.30;99.90;;;;;;5050204;28;20132;-73
2022/08/02 08:04:51;;;;;;;0.20;0.20;;;20.40;99.90;;;;;;5056145;28;20464;-73
2022/08/02 08:07:16;;;;;;;0.20;0.20;;;20.60;99.90;;;;;;5049810;28;20060;-73
2022/08/02 08:09:42;;;;;;;0.20;0.20;;;20.80;99.90;;;;;;5046976;28;20033;-73
2022/08/02 08:12:09;;;;;;;0.30;0.30;;;21.00;99.90;;;;;;5063920;28;20048;-73
2022/08/02 08:14:35;;;;;;;0.30;0.30;;;21.00;99.90;;;;;;5065534;28;20094;-73
2022/08/02 08:17:01;;;;;;;0.20;0.20;;;21.20;99.90;;;;;;5065583;28;20923;-73
2022/08/02 08:19:26;;;;;;;;;;;21.30;99.90;;;;;;5062042;28;20048;-73
2022/08/02 08:21:52;;;;;;;0.20;0.20;;;21.40;99.90;;;;;;5050837;28;19947;-72
2022/08/02 08:24:18;;;;;;;0.60;0.60;;;21.50;99.90;;;;;;5035441;28;20091;-72
2022/08/02 08:26:43;;;;;;;;;;;21.40;99.90;;;;;;5047113;28;20064;-73
2022/08/02 08:29:09;;;;;;;0.35;0.35;;;21.60;99.90;;;;;;5029284;28;19929;-73
2022/08/02 08:31:34;;;;;;;0.30;0.30;;;21.60;99.90;;;;;;5038748;28;20045;-73
2022/08/02 08:34:01;;;;;;;0.30;0.30;;;21.80;99.90;;;;;;5051035;28;20394;-73
2022/08/02 08:36:27;;;;;;;0.20;0.20;;;21.80;99.90;;;;;;5047039;28;20110;-74
2022/08/02 08:38:53;;;;;;;0.30;0.30;;;21.70;99.90;;;;;;5043736;28;20173;-73
2022/08/02 08:41:19;;;;;;;0.32;0.32;;;21.70;99.90;;;;;;5050927;28;20535;-73
2022/08/02 08:43:46;;;;;;;0.20;0.20;;;21.80;99.90;;;;;;5061567;28;20389;-73
2022/08/02 08:46:35;;;;;;;0.30;0.30;;;21.90;99.90;;;;;;5051202;28;20041;-74
2022/08/02 08:49:08;;;;;;;0.20;0.20;;;21.90;99.90;;;;;;5051683;28;20422;-73
2022/08/02 08:51:42;;;;;;;0.20;0.20;;;22.00;99.90;;;;;;5046895;28;20040;-74
2022/08/02 08:54:11;;;;;;;0.45;0.45;;;22.10;99.90;;;;;;5045481;28;20047;-72
2022/08/02 08:56:40;;;;;;;0.38;0.30;;;22.00;99.90;;;;;;5035720;28;20033;-72
2022/08/02 08:59:06;;;;;;;0.13;0.13;;;22.20;99.90;;;;;;5064543;28;20051;-73
2022/08/02 09:01:33;;;;;;;0.30;0.30;;;22.30;99.90;;;;;;5048870;28;20482;-73
2022/08/02 09:03:59;;;;;;;0.32;0.32;;;22.20;99.90;;;;;;5032771;28;20079;-73
2022/08/02 09:06:25;;;;;;;1.25;0.40;;;22.40;99.90;;;;;;5061604;28;20068;-73
2022/08/02 09:08:51;;;;;;;0.40;0.40;;;22.40;99.90;;;;;;5049199;28;20461;-73
2022/08/02 09:11:21;;;;;;;1.10;0.65;;;22.40;99.90;;;;;;5062900;28;20087;-73
2022/08/02 09:13:55;;;;;;;0.30;0.30;;;22.50;99.90;;;;;;5056459;28;20423;-72
2022/08/02 09:16:42;;;;;;;0.20;0.20;;;22.60;99.90;;;;;;5034083;28;20472;-73
2022/08/02 09:19:25;;;;;;;0.50;0.50;;;22.80;99.90;;;;;;5053867;28;20254;-73
2022/08/02 09:22:03;;;;;;;0.47;0.47;;;23.00;99.90;;;;;;5045633;28;20138;-73
2022/08/02 09:24:44;;;;;;;0.20;0.20;;;23.20;99.90;;;;;;5054130;28;20064;-72
2022/08/02 09:27:15;;;;;;;0.38;0.38;;;23.40;99.90;;;;;;5073787;28;20142;-73
2022/08/02 09:29:49;;;;;;;0.20;0.20;;;23.60;99.90;;;;;;5054224;28;20052;-72
2022/08/02 09:32:17;;;;;;;0.30;0.30;;;23.70;99.90;;;;;;5049854;28;20055;-72
2022/08/02 09:34:51;;;;;;;0.30;0.30;;;23.90;99.80;;;;;;5029202;28;20045;-72
2022/08/02 09:37:28;;;;;;;0.30;0.30;;;24.00;99.90;;;;;;5051684;28;20073;-72
2022/08/02 09:39:55;;;;;;;0.73;0.73;;;24.20;99.90;;;;;;5055405;28;20473;-72
2022/08/02 09:42:20;;;;;;;0.32;0.22;;;24.50;99.40;;;;;;5051967;28;20074;-72
2022/08/02 09:44:57;;;;;;;0.50;0.50;;;24.50;99.00;;;;;;5041667;28;20048;-72
2022/08/02 09:47:24;;;;;;;2.20;1.27;;;24.70;98.30;;;;;;5033030;28;20045;-72
2022/08/02 09:49:50;;;;;;;0.35;0.35;;;24.60;98.50;;;;;;5047988;28;20064;-72
2022/08/02 09:52:22;;;;;;;0.30;0.30;;;24.00;99.10;;;;;;5064412;28;20413;-72
2022/08/02 09:54:48;;;;;;;0.30;0.30;;;24.50;97.30;;;;;;5076515;28;20102;-71
2022/08/02 09:57:26;;;;;;;0.30;0.30;;;24.40;97.80;;;;;;5061246;28;20095;-72
2022/08/02 09:59:54;;;;;;;0.30;0.30;;;24.30;99.30;;;;;;5059717;28;20106;-72
2022/08/02 10:02:20;;;;;;;0.35;0.35;;;24.30;99.50;;;;;;5075370;28;20059;-72
2022/08/02 10:04:45;;;;;;;0.35;0.35;;;24.30;99.90;;;;;;5058343;28;20055;-72
2022/08/02 10:07:11;;;;;;;0.47;0.47;;;24.20;99.70;;;;;;5049218;28;20442;-71
2022/08/02 10:09:40;;;;;;;0.30;0.30;;;24.40;99.90;;;;;;5049504;28;20041;-72
2022/08/02 10:12:06;;;;;;;0.20;0.20;;;24.50;99.90;;;;;;5079510;28;20879;-72
2022/08/02 10:14:36;;;;;;;0.38;0.38;;;24.70;99.90;;;;;;5069492;28;20044;-72
2022/08/02 10:17:04;;;;;;;0.30;0.30;;;24.60;99.60;;;;;;5067494;28;20123;-73
2022/08/02 10:19:30;;;;;;;0.75;0.75;;;24.70;99.90;;;;;;5055059;28;20049;-72
2022/08/02 10:22:01;;;;;;;0.30;0.30;;;24.80;99.80;;;;;;5062540;28;20098;-72
2022/08/02 10:24:29;;;;;;;0.30;0.30;;;24.90;99.90;;;;;;5057404;28;20052;-73
2022/08/02 10:26:58;;;;;;;0.30;0.30;;;25.10;99.90;;;;;;5065169;28;20096;-72
2022/08/02 10:29:30;;;;;;;0.30;0.30;;;25.40;99.90;;;;;;5059997;28;20056;-71
2022/08/02 10:32:05;;;;;;;0.63;0.63;;;25.60;99.90;;;;;;5056841;28;20041;-72
2022/08/02 10:34:35;;;;;;;0.10;0.10;;;26.00;99.90;;;;;;5047976;28;20485;-72
2022/08/02 10:37:04;;;;;;;0.17;0.17;;;26.00;99.50;;;;;;5051128;28;20128;-72
2022/08/02 10:39:43;;;;;;;0.15;0.15;;;26.00;99.90;;;;;;5046885;28;20033;-73
2022/08/02 10:42:10;;;;;;;0.30;0.30;;;26.00;99.90;;;;;;5063224;28;20055;-72
2022/08/02 10:44:36;;;;;;;0.73;0.68;;;26.10;99.40;;;;;;5061914;28;20056;-72
2022/08/02 10:47:18;;;;;;;0.65;0.65;;;26.00;99.90;;;;;;5059209;28;20061;-72
2022/08/02 10:49:55;;;;;;;0.52;0.52;;;26.10;99.90;;;;;;5049169;28;20410;-72
2022/08/02 10:52:28;;;;;;;0.50;0.50;;;26.20;99.90;;;;;;5051589;28;20119;-72
2022/08/02 10:55:08;;;;;;;0.30;0.30;;;26.30;99.90;;;;;;5059030;28;20042;-72
2022/08/02 10:57:36;;;;;;;0.50;0.50;;;26.50;99.90;;;;;;5062125;28;20043;-72
2022/08/02 11:00:12;;;;;;;0.20;0.20;;;26.90;99.30;;;;;;5032967;28;20541;-73
2022/08/02 11:02:46;;;;;;;0.50;0.50;;;26.80;98.40;;;;;;5051022;28;20048;-72
2022/08/02 11:05:16;;;;;;;0.20;0.20;;;26.80;99.50;;;;;;5056019;28;20143;-72
2022/08/02 11:07:47;;;;;;;0.40;0.30;;;27.00;98.90;;;;;;5054791;28;20051;-72
2022/08/02 11:10:27;;;;;;;3.65;1.30;;;27.20;97.90;;;;;;5053115;28;20072;-72
2022/08/02 11:13:09;;;;;;;0.20;0.20;;;27.10;98.80;;;;;;5062900;28;20052;-72
2022/08/02 11:16:06;;;;;;;0.30;0.30;;;26.90;96.80;;;;;;5061746;28;20383;-72
2022/08/02 11:19:01;;;;;;;0.82;0.82;;;26.90;96.40;;;;;;5052834;28;20067;-71
2022/08/02 11:21:32;;;;;;;0.25;0.25;;;26.70;96.80;;;;;;5022496;28;20053;-72
2022/08/02 11:24:26;;;;;;;0.20;0.20;;;26.80;96.60;;;;;;5053852;28;20044;-71
2022/08/02 11:26:52;;;;;;;0.50;0.50;;;26.70;96.40;;;;;;5048877;28;20052;-72
2022/08/02 11:29:19;;;;;;;0.40;0.40;;;26.60;96.80;;;;;;5047041;28;20057;-71
2022/08/02 11:31:45;;;;;;;0.82;0.73;;;26.40;96.50;;;;;;5049326;28;20041;-72
2022/08/02 11:34:11;;;;;;;0.40;0.40;;;26.50;96.90;;;;;;5039834;28;20080;-72
2022/08/02 11:36:48;;;;;;;0.20;0.20;;;26.50;97.10;;;;;;5036560;28;20095;-72
2022/08/02 11:39:16;;;;;;;0.25;0.25;;;26.60;97.90;;;;;;5046324;28;20132;-73
2022/08/02 11:41:50;;;;;;;0.38;0.38;;;27.00;99.00;;;;;;5045404;28;20094;-72
2022/08/02 11:44:17;;;;;;;0.47;0.47;;;27.20;97.70;;;;;;5048247;28;20118;-72
2022/08/02 11:46:43;;;;;;;0.47;0.43;;;27.40;97.60;;;;;;5047384;28;20048;-72
2022/08/02 11:49:14;;;;;;;0.45;0.45;;;27.60;98.20;;;;;;5045365;28;20100;-71
2022/08/02 11:52:06;;;;;;;0.20;0.20;;;27.70;97.30;;;;;;5035949;28;20045;-72
2022/08/02 11:54:39;;;;;;;0.20;0.20;;;27.40;96.50;;;;;;5050275;28;20372;-72
2022/08/02 11:57:23;;;;;;;0.73;0.73;;;27.60;98.20;;;;;;5046781;28;20037;-73
2022/08/02 11:59:51;;;;;;;0.60;0.60;;;27.50;96.60;;;;;;5053701;28;20074;-72
2022/08/02 12:02:19;;;;;;;0.38;0.38;;;27.20;96.10;;;;;;5041720;28;20491;-72
2022/08/02 12:05:02;;;;;;;0.40;0.40;;;27.20;97.80;;;;;;5055355;28;20509;-71
2022/08/02 12:07:37;;;;;;;0.30;0.30;;;27.20;96.90;;;;;;5070579;28;20036;-72
2022/08/02 12:10:17;;;;;;;0.50;0.50;;;27.20;96.50;;;;;;5055215;28;20049;-71
2022/08/02 12:12:55;;;;;;;0.30;0.30;;;27.00;97.50;;;;;;5055640;28;20044;-72
2022/08/02 12:15:41;;;;;;;0.50;0.50;;;26.90;97.40;;;;;;5034836;28;20045;-72
2022/08/02 12:20:56;;;;;;;0.20;0.20;;;27.10;99.30;;;;;;5045148;28;20053;-71
2022/08/02 12:23:22;;;;;;;0.20;0.20;;;27.10;98.70;;;;;;5050848;28;20452;-73
2022/08/02 12:26:03;;;;;;;0.20;0.20;;;27.00;98.40;;;;;;5050582;28;20547;-72
2022/08/02 12:28:33;;;;;;;0.28;0.28;;;26.80;98.50;;;;;;5059399;28;20061;-72
2022/08/02 12:31:00;;;;;;;0.43;0.43;;;26.70;98.60;;;;;;5046375;28;20075;-72
2022/08/02 12:33:43;;;;;;;0.32;0.32;;;26.70;99.80;;;;;;5051201;28;20624;-73
2022/08/02 12:36:28;;;;;;;0.30;0.30;;;26.50;99.50;;;;;;5043877;28;20051;-72
2022/08/02 12:38:56;;;;;;;0.40;0.40;;;26.30;99.70;;;;;;5028589;28;20044;-72
2022/08/02 12:41:23;;;;;;;0.20;0.20;;;26.30;99.90;;;;;;5053621;28;20169;-72
2022/08/02 12:43:50;;;;;;;0.57;0.52;;;26.20;99.90;;;;;;5053350;28;20044;-72
2022/08/02 12:46:18;;;;;;;0.40;0.40;;;25.90;99.90;;;;;;5043410;28;20048;-73
2022/08/02 12:48:44;;;;;;;0.65;0.65;;;26.00;99.90;;;;;;5051937;28;20044;-72
2022/08/02 12:51:32;;;;;;;0.40;0.40;;;25.90;99.90;;;;;;5051936;28;20588;-73
2022/08/02 12:54:13;;;;;;;0.25;0.25;;;25.90;99.90;;;;;;5042988;28;20117;-73
2022/08/02 12:56:39;;;;;;;0.30;0.30;;;25.80;99.90;;;;;;5047598;28;20037;-73
2022/08/02 12:59:06;;;;;;;0.38;0.38;;;25.90;99.90;;;;;;5046458;28;20387;-73
2022/08/02 13:01:34;;;;;;;0.28;0.28;;;25.90;99.90;;;;;;5047280;28;20049;-74
2022/08/02 13:04:00;;;;;;;0.55;0.55;;;25.80;99.90;;;;;;5048092;28;20044;-73
2022/08/02 13:06:26;;;;;;;0.80;0.80;;;25.70;99.90;;;;;;5048669;28;20048;-72
2022/08/02 13:08:53;;;;;;;0.85;0.85;;;25.50;99.90;;;;;;5031637;28;20040;-73